createdAt,value
2023-05-31T00:02:59.141Z,100163.13
2023-05-31T00:08:03.638Z,100163.34
2023-05-31T00:13:06.719Z,100171.38
2023-05-31T00:18:09.842Z,100171.03
2023-05-31T00:23:14.300Z,100172.41
2023-05-31T00:28:17.800Z,100162.78
2023-05-31T00:33:21.379Z,100171.75
2023-05-31T00:38:25.802Z,100175.78
2023-05-31T00:43:28.865Z,100176.25
2023-05-31T00:48:32.677Z,100173.00
2023-05-31T00:53:37.645Z,100179.28
2023-05-31T00:58:43.093Z,100175.56
2023-05-31T01:03:46.211Z,100170.44
2023-05-31T01:08:51.207Z,100174.16
2023-05-31T01:14:03.700Z,100169.50
2023-05-31T01:19:10.612Z,100169.66
2023-05-31T01:24:38.308Z,100167.25
2023-05-31T01:29:44.374Z,100164.53
2023-05-31T01:34:48.232Z,100160.41
2023-05-31T01:39:53.350Z,100162.22
2023-05-31T01:44:59.367Z,100156.06
2023-05-31T01:50:03.421Z,100171.41
2023-05-31T01:55:07.903Z,100169.69
2023-05-31T02:00:14.513Z,100176.00
2023-05-31T02:05:18.182Z,100166.41
2023-05-31T02:10:21.669Z,100159.56
2023-05-31T02:15:26.105Z,100152.31
2023-05-31T02:20:29.379Z,100160.75
2023-05-31T02:25:32.897Z,100166.19
2023-05-31T02:30:39.545Z,100153.19
2023-05-31T02:35:42.612Z,100160.28
2023-05-31T02:40:46.187Z,100161.28
2023-05-31T02:45:51.777Z,100161.75
2023-05-31T02:50:54.845Z,100158.69
2023-05-31T02:55:59.460Z,100167.88
2023-05-31T03:01:04.284Z,100157.59
2023-05-31T03:06:07.856Z,100157.41
2023-05-31T03:11:10.964Z,100164.31
2023-05-31T03:16:16.310Z,100171.22
2023-05-31T03:21:19.431Z,100184.13
2023-05-31T03:26:22.517Z,100177.94
2023-05-31T03:31:30.176Z,100180.72
2023-05-31T03:36:33.642Z,100182.56
2023-05-31T03:41:37.691Z,100188.16
2023-05-31T03:46:42.285Z,100193.06
2023-05-31T03:51:45.501Z,100191.34
2023-05-31T03:56:48.590Z,100193.06
2023-05-31T04:01:53.452Z,100197.31
2023-05-31T04:06:57.004Z,100190.00
2023-05-31T04:12:00.155Z,100194.34
2023-05-31T04:17:04.782Z,100195.88
2023-05-31T04:22:07.956Z,100198.28
2023-05-31T04:27:11.248Z,100201.44
2023-05-31T04:32:16.673Z,100202.28
2023-05-31T04:37:20.207Z,100213.88
2023-05-31T04:42:25.613Z,100217.16
2023-05-31T04:47:30.554Z,100218.09
2023-05-31T04:52:33.963Z,100212.59
2023-05-31T04:57:37.357Z,100206.25
2023-05-31T05:02:41.819Z,100209.91
2023-05-31T05:07:45.593Z,100206.81
2023-05-31T05:12:49.006Z,100215.47
2023-05-31T05:17:57.281Z,100212.75
2023-05-31T05:23:03.868Z,100211.81
2023-05-31T05:28:07.913Z,100212.28
2023-05-31T05:33:18.552Z,100217.88
2023-05-31T05:38:23.207Z,100211.16
2023-05-31T05:43:26.882Z,100220.00
2023-05-31T05:48:31.790Z,100219.13
2023-05-31T05:53:35.738Z,100218.03
2023-05-31T05:58:39.723Z,100232.78
2023-05-31T06:03:45.154Z,100238.34
2023-05-31T06:08:49.424Z,100229.91
2023-05-31T06:13:57.315Z,100228.09
2023-05-31T06:19:02.570Z,100230.00
2023-05-31T06:24:06.287Z,100232.06
2023-05-31T06:29:09.832Z,100229.78
2023-05-31T06:34:15.064Z,100222.31
2023-05-31T06:39:18.899Z,100232.09
2023-05-31T06:44:22.180Z,100236.38
2023-05-31T06:49:28.771Z,100228.28
2023-05-31T06:54:33.305Z,100218.56
2023-05-31T06:59:36.861Z,100225.03
2023-05-31T07:04:42.503Z,100229.09
2023-05-31T07:09:46.534Z,100228.22
2023-05-31T07:14:49.995Z,100221.06
2023-05-31T07:19:54.788Z,100212.53
2023-05-31T07:24:58.220Z,100221.25
2023-05-31T07:30:01.992Z,100222.00
2023-05-31T07:35:07.849Z,100219.19
2023-05-31T07:40:11.791Z,100221.16
2023-05-31T07:45:15.353Z,100219.97
2023-05-31T07:50:20.518Z,100213.19
2023-05-31T07:55:24.441Z,100205.47
2023-05-31T08:00:30.648Z,100209.88
2023-05-31T08:05:36.950Z,100194.63
2023-05-31T08:10:40.651Z,100194.63
2023-05-31T08:15:43.880Z,100193.75
2023-05-31T08:20:48.692Z,100189.44
2023-05-31T08:25:54.431Z,100193.56
2023-05-31T08:30:57.778Z,100186.63
2023-05-31T08:36:05.182Z,100176.81
2023-05-31T08:41:09.430Z,100184.13
2023-05-31T08:46:13.064Z,100189.84
2023-05-31T08:51:18.165Z,100177.16
2023-05-31T08:56:23.407Z,100173.88
2023-05-31T09:01:29.461Z,100164.59
2023-05-31T09:06:34.514Z,100164.59
2023-05-31T09:11:38.795Z,100164.94
2023-05-31T09:16:43.444Z,100172.69
2023-05-31T09:21:48.417Z,100173.75
2023-05-31T09:26:53.319Z,100163.41
2023-05-31T09:32:09.909Z,100165.25
2023-05-31T09:37:23.302Z,100154.66
2023-05-31T09:42:28.410Z,100149.34
2023-05-31T09:47:31.984Z,100148.78
2023-05-31T09:52:39.137Z,100144.84
2023-05-31T09:57:44.686Z,100138.50
2023-05-31T10:02:49.757Z,100131.75
2023-05-31T10:07:55.464Z,100129.25
2023-05-31T10:13:02.485Z,100126.81
2023-05-31T10:18:12.166Z,100125.13
2023-05-31T10:23:22.592Z,100109.41
2023-05-31T10:28:29.775Z,100101.84
2023-05-31T10:33:33.913Z,100109.63
2023-05-31T10:38:46.668Z,100104.88
2023-05-31T10:43:56.827Z,100090.28
2023-05-31T10:49:01.844Z,100084.66
2023-05-31T10:54:06.776Z,100083.69
2023-05-31T10:59:11.636Z,100081.50
2023-05-31T11:04:22.898Z,100080.09
2023-05-31T11:09:28.117Z,100079.72
2023-05-31T11:14:33.195Z,100075.25
2023-05-31T11:19:37.943Z,100073.53
2023-05-31T11:24:51.893Z,100067.06
2023-05-31T11:29:59.886Z,100061.75
2023-05-31T11:35:05.667Z,100059.75
2023-05-31T11:40:12.971Z,100047.25
2023-05-31T11:45:18.761Z,100054.97
2023-05-31T11:50:22.199Z,100045.97
2023-05-31T11:55:33.919Z,100026.28
2023-05-31T12:00:37.331Z,100033.16
2023-05-31T12:05:41.186Z,100028.06
2023-05-31T12:10:46.965Z,100019.69
2023-05-31T12:15:57.029Z,100004.41
2023-05-31T12:21:06.580Z,100003.19
2023-05-31T12:26:13.739Z,99984.88
2023-05-31T12:31:22.145Z,99994.56
2023-05-31T12:36:26.077Z,99997.72
2023-05-31T12:41:35.441Z,99989.59
2023-05-31T12:46:43.585Z,99980.38
2023-05-31T12:51:50.902Z,99982.31
2023-05-31T12:57:07.862Z,99979.31
2023-05-31T13:02:14.937Z,99970.97
2023-05-31T13:13:27.497Z,99978.41
2023-05-31T13:18:30.660Z,99969.91
2023-05-31T13:23:33.785Z,99972.50
2023-05-31T13:28:38.246Z,99954.09
2023-05-31T13:33:41.418Z,99957.94
2023-05-31T13:38:44.864Z,99945.88
2023-05-31T13:43:49.611Z,99935.41
2023-05-31T13:48:53.395Z,99932.22
2023-05-31T13:53:56.840Z,99940.00
2023-05-31T13:59:01.305Z,99928.94
2023-05-31T14:04:04.738Z,99922.69
2023-05-31T14:09:08.109Z,99909.94
2023-05-31T14:14:12.705Z,99913.59
2023-05-31T14:19:16.994Z,99917.75
2023-05-31T14:24:20.266Z,99897.44
2023-05-31T14:29:24.885Z,99902.53
2023-05-31T14:34:28.021Z,99893.91
2023-05-31T14:39:31.773Z,99890.91
2023-05-31T14:44:36.725Z,99894.06
2023-05-31T14:49:39.800Z,99893.75
2023-05-31T14:54:42.880Z,99876.38
2023-05-31T14:59:47.354Z,99878.59
2023-05-31T15:04:50.502Z,99873.00
2023-05-31T15:09:53.597Z,99871.09
2023-05-31T15:14:58.628Z,99867.88
2023-05-31T15:20:02.602Z,99870.72
2023-05-31T15:25:06.873Z,99868.03
2023-05-31T15:30:12.542Z,99867.19
2023-05-31T15:35:16.037Z,99853.38
2023-05-31T15:40:19.146Z,99846.75
2023-05-31T15:45:23.650Z,99845.81
2023-05-31T15:50:27.240Z,99846.34
2023-05-31T15:55:30.688Z,99851.38
2023-05-31T16:00:35.363Z,99847.41
2023-05-31T16:05:38.846Z,99852.31
2023-05-31T16:10:42.001Z,99841.06
2023-05-31T16:15:46.849Z,99842.81
2023-05-31T16:20:49.938Z,99838.97
2023-05-31T16:25:54.754Z,99840.41
2023-05-31T16:31:01.856Z,99828.16
2023-05-31T16:36:05.928Z,99826.28
2023-05-31T16:41:09.017Z,99827.47
2023-05-31T16:46:13.477Z,99824.66
2023-05-31T16:51:17.042Z,99817.31
2023-05-31T16:56:20.714Z,99816.47
2023-05-31T17:01:25.923Z,99812.66
2023-05-31T17:06:29.055Z,99805.53
2023-05-31T17:11:32.284Z,99801.47
2023-05-31T17:16:36.781Z,99799.19
2023-05-31T17:21:39.934Z,99798.56
2023-05-31T17:26:46.346Z,99800.31
2023-05-31T17:31:50.876Z,99797.63
2023-05-31T17:36:54.013Z,99790.34
2023-05-31T17:41:57.142Z,99789.47
2023-05-31T17:47:01.642Z,99788.94
2023-05-31T17:52:05.425Z,99786.66
2023-05-31T17:57:09.330Z,99783.59
2023-05-31T18:02:14.482Z,99778.66
2023-05-31T18:07:17.631Z,99778.50
2023-05-31T18:12:20.702Z,99772.13
2023-05-31T18:17:25.380Z,99777.03
2023-05-31T18:22:28.698Z,99781.63
2023-05-31T18:27:33.247Z,99780.28
2023-05-31T18:32:37.755Z,99775.97
2023-05-31T18:37:41.048Z,99779.69
2023-05-31T18:42:44.166Z,99779.31
2023-05-31T18:47:50.568Z,99776.47
2023-05-31T18:52:53.949Z,99780.50
2023-05-31T18:57:57.404Z,99775.31
2023-05-31T19:03:02.342Z,99783.06
2023-05-31T19:08:05.901Z,99787.75
2023-05-31T19:13:10.329Z,99791.16
2023-05-31T19:18:18.315Z,99789.50
2023-05-31T19:23:22.260Z,99784.88
2023-05-31T19:28:26.325Z,99794.22
2023-05-31T19:33:31.385Z,99791.19
2023-05-31T19:38:35.220Z,99797.09
2023-05-31T19:43:38.615Z,99805.53
2023-05-31T19:48:43.428Z,99809.78
2023-05-31T19:53:46.562Z,99805.09
2023-05-31T19:58:49.646Z,99809.25
2023-05-31T20:03:54.187Z,99822.75
2023-05-31T20:08:57.329Z,99808.28
2023-05-31T20:14:00.458Z,99815.28
2023-05-31T20:19:04.936Z,99821.88
2023-05-31T20:24:08.566Z,99814.69
2023-05-31T20:29:12.071Z,99819.81
2023-05-31T20:34:16.776Z,99817.44
2023-05-31T20:39:19.996Z,99828.03
2023-05-31T20:44:23.528Z,99839.19
2023-05-31T20:49:28.002Z,99833.44
2023-05-31T20:54:31.533Z,99826.16
2023-05-31T20:59:36.595Z,99821.06
2023-05-31T21:04:41.413Z,99816.63
2023-05-31T21:09:44.917Z,99815.94
2023-05-31T21:14:48.731Z,99827.34
2023-05-31T21:19:53.572Z,99824.47
2023-05-31T21:24:57.085Z,99827.91
2023-05-31T21:30:00.192Z,99830.38
2023-05-31T21:35:04.835Z,99826.63
2023-05-31T21:40:09.008Z,99827.75
2023-05-31T21:45:12.447Z,99829.19
2023-05-31T21:50:16.981Z,99820.47
2023-05-31T21:55:20.624Z,99823.97
2023-05-31T22:00:23.986Z,99841.38
2023-05-31T22:05:28.424Z,99830.59
2023-05-31T22:10:31.478Z,99837.38
2023-05-31T22:15:35.232Z,99839.75
2023-05-31T22:20:39.910Z,99837.03
2023-05-31T22:25:43.414Z,99838.72
2023-05-31T22:30:46.840Z,99839.75
2023-05-31T22:35:51.626Z,99845.25
2023-05-31T22:40:55.111Z,99840.63
2023-05-31T22:45:58.610Z,99834.91
2023-05-31T22:51:03.396Z,99832.19
2023-05-31T22:56:07.114Z,99837.66
2023-05-31T23:01:10.582Z,99829.06
2023-05-31T23:06:15.298Z,99832.56
2023-05-31T23:24:06.889Z,99838.13
2023-05-31T23:29:10.282Z,99837.16
2023-05-31T23:34:15.413Z,99834.16
2023-05-31T23:39:19.800Z,99829.47
2023-05-31T23:44:22.846Z,99834.66
2023-05-31T23:49:26.430Z,99829.47
2023-05-31T23:54:31.449Z,99829.31
2023-05-31T23:59:34.869Z,99838.31
